createdAt,value
2024-02-18T00:02:07.767Z,103302.09
2024-02-18T00:04:34.594Z,103316.16
2024-02-18T00:07:01.621Z,103309.16
2024-02-18T00:09:28.476Z,103300.38
2024-02-18T00:11:55.967Z,103307.56
2024-02-18T00:14:22.887Z,103311.19
2024-02-18T00:16:49.777Z,103303.41
2024-02-18T00:19:16.611Z,103297.38
2024-02-18T00:21:43.267Z,103294.75
2024-02-18T00:24:09.875Z,103301.84
2024-02-18T00:26:50.065Z,103295.66
2024-02-18T00:29:24.639Z,103294.81
2024-02-18T00:31:51.250Z,103287.03
2024-02-18T00:34:26.785Z,103284.38
2024-02-18T00:36:53.810Z,103280.81
2024-02-18T00:39:20.863Z,103280.81
2024-02-18T00:41:47.615Z,103282.53
2024-02-18T00:44:14.246Z,103276.38
2024-02-18T00:46:47.786Z,103264.19
2024-02-18T00:49:21.406Z,103264.09
2024-02-18T00:51:48.073Z,103259.66
2024-02-18T00:54:14.836Z,103251.69
2024-02-18T00:56:41.432Z,103255.22
2024-02-18T00:59:08.004Z,103258.66
2024-02-18T01:01:35.260Z,103252.53
2024-02-18T01:04:02.292Z,103252.53
2024-02-18T01:06:29.048Z,103264.84
2024-02-18T01:08:55.656Z,103258.69
2024-02-18T01:11:22.275Z,103258.63
2024-02-18T01:13:48.938Z,103260.34
2024-02-18T01:16:15.474Z,103247.13
2024-02-18T01:18:43.867Z,103260.34
2024-02-18T01:21:11.816Z,103258.50
2024-02-18T01:23:38.433Z,103248.69
2024-02-18T01:26:05.446Z,103246.75
2024-02-18T01:28:32.056Z,103244.09
2024-02-18T01:30:58.802Z,103244.94
2024-02-18T01:33:25.610Z,103236.94
2024-02-18T01:35:52.196Z,103235.88
2024-02-18T01:38:18.713Z,103237.56
2024-02-18T01:40:45.405Z,103233.09
2024-02-18T01:43:14.372Z,103232.16
2024-02-18T01:45:41.009Z,103237.38
2024-02-18T01:48:08.107Z,103228.50
2024-02-18T01:50:35.134Z,103227.47
2024-02-18T01:53:01.935Z,103225.63
2024-02-18T01:55:28.593Z,103223.81
2024-02-18T01:57:55.204Z,103221.16
2024-02-18T02:00:22.768Z,103224.63
2024-02-18T02:02:50.582Z,103216.59
2024-02-18T02:05:20.352Z,103222.63
2024-02-18T02:07:50.775Z,103219.09
2024-02-18T02:10:18.719Z,103215.50
2024-02-18T02:12:46.056Z,103218.09
2024-02-18T02:15:13.191Z,103213.56
2024-02-18T02:17:40.296Z,103209.09
2024-02-18T02:20:11.758Z,103202.00
2024-02-18T02:22:39.193Z,103209.91
2024-02-18T02:25:09.966Z,103201.94
2024-02-18T02:27:43.668Z,103200.16
2024-02-18T02:30:11.002Z,103197.50
2024-02-18T02:32:37.759Z,103187.78
2024-02-18T02:35:04.846Z,103187.00
2024-02-18T02:37:31.965Z,103185.97
2024-02-18T02:39:58.822Z,103171.78
2024-02-18T02:42:25.805Z,103170.03
2024-02-18T02:44:52.378Z,103172.69
2024-02-18T02:47:18.993Z,103178.81
2024-02-18T02:49:45.636Z,103166.50
2024-02-18T02:52:12.875Z,103166.53
2024-02-18T02:54:39.517Z,103161.22
2024-02-18T02:57:06.192Z,103155.97
2024-02-18T02:59:32.707Z,103158.56
2024-02-18T03:01:59.307Z,103155.06
2024-02-18T03:04:26.041Z,103143.59
2024-02-18T03:06:52.744Z,103151.56
2024-02-18T03:09:20.042Z,103144.56
2024-02-18T03:11:46.988Z,103141.03
2024-02-18T03:14:13.566Z,103141.09
2024-02-18T03:16:40.229Z,103136.72
2024-02-18T03:19:06.892Z,103129.56
2024-02-18T03:21:33.710Z,103129.56
2024-02-18T03:24:00.418Z,103119.88
2024-02-18T03:26:27.327Z,103121.72
2024-02-18T03:28:54.141Z,103117.25
2024-02-18T03:31:21.263Z,103113.66
2024-02-18T03:33:48.411Z,103119.00
2024-02-18T03:36:15.253Z,103105.09
2024-02-18T03:38:42.022Z,103095.50
2024-02-18T03:41:09.985Z,103111.38
2024-02-18T03:43:36.597Z,103100.03
2024-02-18T03:46:03.636Z,103092.97
2024-02-18T03:48:30.529Z,103097.41
2024-02-18T03:50:57.417Z,103094.00
2024-02-18T03:53:24.068Z,103080.91
2024-02-18T03:55:50.905Z,103072.06
2024-02-18T03:58:17.681Z,103068.69
2024-02-18T04:00:47.673Z,103057.31
2024-02-18T04:03:14.921Z,103056.50
2024-02-18T04:05:42.506Z,103060.00
2024-02-18T04:08:09.129Z,103048.63
2024-02-18T04:10:35.671Z,103042.50
2024-02-18T04:13:02.399Z,103040.03
2024-02-18T04:15:29.038Z,103038.31
2024-02-18T04:17:56.106Z,103028.69
2024-02-18T04:20:22.973Z,103026.94
2024-02-18T04:22:49.468Z,103021.75
2024-02-18T04:25:16.163Z,103014.72
2024-02-18T04:27:42.855Z,103016.56
2024-02-18T04:30:09.865Z,103013.09
2024-02-18T04:32:36.650Z,103007.78
2024-02-18T04:35:04.656Z,102998.25
2024-02-18T04:37:31.590Z,102999.19
2024-02-18T04:39:58.910Z,102999.22
2024-02-18T04:42:25.741Z,102995.72
2024-02-18T04:44:52.572Z,102984.31
2024-02-18T04:47:19.463Z,102979.13
2024-02-18T04:49:46.322Z,102968.63
2024-02-18T04:52:13.242Z,102976.53
2024-02-18T04:54:40.675Z,102968.59
2024-02-18T04:57:07.723Z,102961.53
2024-02-18T04:59:37.247Z,102959.78
2024-02-18T05:02:04.287Z,102951.88
2024-02-18T05:04:32.852Z,102946.59
2024-02-18T05:07:00.573Z,102950.03
2024-02-18T05:09:27.518Z,102940.44
2024-02-18T05:11:54.138Z,102937.81
2024-02-18T05:14:20.881Z,102936.88
2024-02-18T05:16:47.618Z,102939.53
2024-02-18T05:19:15.488Z,102929.03
2024-02-18T05:21:43.533Z,102932.53
2024-02-18T05:24:11.302Z,102928.03
2024-02-18T05:26:37.892Z,102921.13
2024-02-18T05:29:04.657Z,102930.84
2024-02-18T05:31:31.436Z,102915.69
2024-02-18T05:33:58.380Z,102926.28
2024-02-18T05:36:25.234Z,102922.75
2024-02-18T05:38:52.010Z,102914.78
2024-02-18T05:41:18.999Z,102912.09
2024-02-18T05:43:46.092Z,102912.03
2024-02-18T05:46:12.936Z,102902.44
2024-02-18T05:48:40.499Z,102896.25
2024-02-18T05:51:08.236Z,102891.84
2024-02-18T05:53:35.289Z,102878.69
2024-02-18T05:56:02.566Z,102877.81
2024-02-18T05:58:29.222Z,102870.84
2024-02-18T06:00:55.852Z,102866.47
2024-02-18T06:03:22.600Z,102866.41
2024-02-18T06:05:49.386Z,102865.66
2024-02-18T06:08:16.011Z,102868.31
2024-02-18T06:10:42.836Z,102859.47
2024-02-18T06:13:09.590Z,102852.47
2024-02-18T06:15:36.191Z,102843.72
2024-02-18T06:18:02.905Z,102844.66
2024-02-18T06:20:29.774Z,102837.59
2024-02-18T06:22:57.088Z,102834.16
2024-02-18T06:25:24.186Z,102824.53
2024-02-18T06:27:51.627Z,102829.78
2024-02-18T06:30:18.286Z,102835.09
2024-02-18T06:32:44.868Z,102820.09
2024-02-18T06:35:11.507Z,102816.63
2024-02-18T06:37:38.168Z,102817.50
2024-02-18T06:40:05.581Z,102821.03
2024-02-18T06:42:32.204Z,102816.53
2024-02-18T06:44:58.830Z,102808.69
2024-02-18T06:47:25.508Z,102817.44
2024-02-18T06:49:52.267Z,102815.78
2024-02-18T06:52:19.675Z,102814.03
2024-02-18T06:54:46.522Z,102811.38
2024-02-18T06:57:13.297Z,102806.09
2024-02-18T06:59:39.843Z,102802.59
2024-02-18T07:02:06.506Z,102799.09
2024-02-18T07:04:33.178Z,102792.13
2024-02-18T07:06:59.812Z,102790.25
2024-02-18T07:09:26.475Z,102796.50
2024-02-18T07:11:53.072Z,102793.94
2024-02-18T07:14:19.782Z,102796.50
2024-02-18T07:16:46.349Z,102783.34
2024-02-18T07:19:12.978Z,102785.91
2024-02-18T07:21:39.593Z,102771.00
2024-02-18T07:24:07.910Z,102773.66
2024-02-18T07:26:34.527Z,102771.13
2024-02-18T07:29:01.601Z,102771.13
2024-02-18T07:31:28.457Z,102768.41
2024-02-18T07:33:55.256Z,102765.84
2024-02-18T07:36:23.073Z,102770.19
2024-02-18T07:38:51.753Z,102768.47
2024-02-18T07:41:18.332Z,102760.53
2024-02-18T07:43:45.797Z,102761.53
2024-02-18T07:46:13.781Z,102756.28
2024-02-18T07:48:40.473Z,102756.22
2024-02-18T07:51:07.046Z,102758.00
2024-02-18T07:53:33.571Z,102755.28
2024-02-18T07:56:00.357Z,102750.00
2024-02-18T07:58:26.921Z,102752.66
2024-02-18T08:00:53.525Z,102750.03
2024-02-18T08:03:20.251Z,102747.34
2024-02-18T08:05:48.427Z,102743.84
2024-02-18T08:08:14.974Z,102735.03
2024-02-18T08:10:41.512Z,102740.34
2024-02-18T08:13:10.404Z,102737.75
2024-02-18T08:15:37.262Z,102733.25
2024-02-18T08:18:04.137Z,102738.66
2024-02-18T08:20:30.700Z,102726.34
2024-02-18T08:22:57.281Z,102735.09
2024-02-18T08:25:23.801Z,102727.25
2024-02-18T08:27:50.327Z,102722.84
2024-02-18T08:30:16.903Z,102721.94
2024-02-18T08:32:43.430Z,102726.34
2024-02-18T08:35:10.163Z,102718.41
2024-02-18T08:37:36.985Z,102718.44
2024-02-18T08:40:03.964Z,102717.59
2024-02-18T08:42:30.576Z,102718.50
2024-02-18T08:44:57.280Z,102708.84
2024-02-18T08:47:24.093Z,102710.50
2024-02-18T08:49:50.777Z,102706.06
2024-02-18T08:52:17.346Z,102696.41
2024-02-18T08:54:44.715Z,102693.66
2024-02-18T08:57:11.429Z,102687.44
2024-02-18T08:59:37.901Z,102682.16
2024-02-18T09:02:07.083Z,102678.66
2024-02-18T09:04:34.210Z,102682.19
2024-02-18T09:07:00.947Z,102682.25
2024-02-18T09:09:27.915Z,102690.09
2024-02-18T09:11:54.463Z,102684.81
2024-02-18T09:14:21.044Z,102679.44
2024-02-18T09:16:48.374Z,102676.72
2024-02-18T09:19:15.027Z,102675.69
2024-02-18T09:21:41.764Z,102673.03
2024-02-18T09:24:08.541Z,102676.53
2024-02-18T09:26:35.015Z,102665.97
2024-02-18T09:29:01.491Z,102663.25
2024-02-18T09:31:28.073Z,102655.31
2024-02-18T09:33:54.877Z,102638.53
2024-02-18T09:36:21.486Z,102633.13
2024-02-18T09:38:49.978Z,102626.09
2024-02-18T09:41:20.408Z,102629.56
2024-02-18T09:43:47.144Z,102632.00
2024-02-18T09:46:15.606Z,102624.91
2024-02-18T09:48:42.889Z,102613.56
2024-02-18T09:51:11.909Z,102608.41
2024-02-18T09:53:39.307Z,102603.16
2024-02-18T09:56:07.536Z,102604.84
2024-02-18T09:58:35.084Z,102587.22
2024-02-18T10:01:03.312Z,102591.63
2024-02-18T10:03:30.317Z,102581.78
2024-02-18T10:05:57.069Z,102572.13
2024-02-18T10:08:24.161Z,102578.22
2024-02-18T10:10:52.215Z,102562.34
2024-02-18T10:13:24.233Z,102570.19
2024-02-18T10:15:53.255Z,102557.69
2024-02-18T10:18:21.013Z,102555.06
2024-02-18T10:20:47.851Z,102553.34
2024-02-18T10:23:14.421Z,102554.25
2024-02-18T10:25:41.030Z,102542.75
2024-02-18T10:28:07.658Z,102546.31
2024-02-18T10:30:34.350Z,102541.00
2024-02-18T10:33:00.858Z,102545.41
2024-02-18T10:35:27.701Z,102540.16
2024-02-18T10:37:57.407Z,102535.84
2024-02-18T10:40:40.686Z,102541.06
2024-02-18T10:43:12.258Z,102536.72
2024-02-18T10:45:42.065Z,102527.91
2024-02-18T10:48:12.209Z,102525.38
2024-02-18T10:50:44.942Z,102527.25
2024-02-18T10:53:35.483Z,102521.09
2024-02-18T10:56:07.016Z,102522.88
2024-02-18T10:58:43.950Z,102507.06
2024-02-18T11:01:14.411Z,102506.16
2024-02-18T11:03:49.549Z,102494.66
2024-02-18T11:06:18.126Z,102491.97
2024-02-18T11:08:46.869Z,102488.41
2024-02-18T11:11:14.313Z,102481.31
2024-02-18T11:13:41.856Z,102475.13
2024-02-18T11:16:13.515Z,102468.13
2024-02-18T11:18:41.958Z,102467.22
2024-02-18T11:21:09.524Z,102451.47
2024-02-18T11:23:36.303Z,102444.56
2024-02-18T11:26:03.449Z,102435.72
2024-02-18T11:28:32.799Z,102438.47
2024-02-18T11:31:00.435Z,102427.09
2024-02-18T11:33:32.399Z,102413.06
2024-02-18T11:36:13.931Z,102411.34
2024-02-18T11:38:47.281Z,102406.06
2024-02-18T11:41:34.724Z,102389.31
2024-02-18T11:44:14.225Z,102375.28
2024-02-18T11:46:44.464Z,102377.19
2024-02-18T11:49:12.567Z,102365.81
2024-02-18T11:51:39.561Z,102357.72
2024-02-18T11:54:07.075Z,102355.09
2024-02-18T11:56:33.718Z,102339.28
2024-02-18T11:59:00.541Z,102348.94
2024-02-18T12:01:28.755Z,102338.34
2024-02-18T12:03:56.674Z,102336.56
2024-02-18T12:06:24.646Z,102324.91
2024-02-18T12:08:51.395Z,102317.84
2024-02-18T12:11:18.139Z,102316.91
2024-02-18T12:13:44.958Z,102304.63
2024-02-18T12:16:12.429Z,102298.53
2024-02-18T12:18:39.334Z,102294.03
2024-02-18T12:21:06.061Z,102298.59
2024-02-18T12:23:42.143Z,102295.94
2024-02-18T12:26:10.657Z,102288.13
2024-02-18T12:28:37.263Z,102295.16
2024-02-18T12:31:04.184Z,102277.53
2024-02-18T12:33:31.938Z,102270.38
2024-02-18T12:35:58.817Z,102267.84
2024-02-18T12:38:25.447Z,102262.53
2024-02-18T12:40:58.240Z,102261.53
2024-02-18T12:43:57.888Z,102251.81
2024-02-18T12:46:13.611Z,102248.31
2024-02-18T12:48:40.503Z,102246.38
2024-02-18T12:51:14.998Z,102233.22
2024-02-18T12:53:43.142Z,102227.97
2024-02-18T12:56:11.653Z,102228.78
2024-02-18T12:58:39.770Z,102224.22
2024-02-18T13:01:06.874Z,102224.22
2024-02-18T13:03:35.360Z,102216.22
2024-02-18T13:06:03.885Z,102204.75
2024-02-18T13:08:30.714Z,102206.25
2024-02-18T13:10:58.332Z,102193.75
2024-02-18T13:13:24.932Z,102189.19
2024-02-18T13:15:54.697Z,102181.19
2024-02-18T13:18:21.386Z,102170.59
2024-02-18T13:20:47.985Z,102164.50
2024-02-18T13:23:14.500Z,102162.31
2024-02-18T13:25:41.191Z,102153.50
2024-02-18T13:28:07.890Z,102143.91
2024-02-18T13:30:34.553Z,102140.47
2024-02-18T13:33:01.228Z,102126.31
2024-02-18T13:35:27.886Z,102133.41
2024-02-18T13:37:54.637Z,102123.72
2024-02-18T13:40:21.195Z,102113.91
2024-02-18T13:42:47.875Z,102112.00
2024-02-18T13:45:14.492Z,102105.84
2024-02-18T13:47:41.083Z,102104.06
2024-02-18T13:50:09.011Z,102098.59
2024-02-18T13:52:35.693Z,102082.63
2024-02-18T13:55:02.481Z,102080.00
2024-02-18T13:57:29.131Z,102074.53
2024-02-18T13:59:57.615Z,102060.31
2024-02-18T14:02:24.545Z,102056.78
2024-02-18T14:04:51.924Z,102049.78
2024-02-18T14:07:21.304Z,102050.56
2024-02-18T14:09:50.217Z,102047.97
2024-02-18T14:12:17.381Z,102033.81
2024-02-18T14:14:49.319Z,102032.88
2024-02-18T14:17:16.290Z,102021.38
2024-02-18T14:19:43.209Z,102011.63
2024-02-18T14:22:09.994Z,102015.06
2024-02-18T14:24:36.738Z,102016.75
2024-02-18T14:27:04.414Z,102001.63
2024-02-18T14:29:31.202Z,101998.94
2024-02-18T14:31:57.708Z,102004.94
2024-02-18T14:34:24.433Z,101992.47
2024-02-18T14:36:51.107Z,101993.25
2024-02-18T14:39:17.710Z,101986.88
2024-02-18T14:41:44.335Z,101979.53
2024-02-18T14:44:10.830Z,101981.84
2024-02-18T14:46:37.341Z,101975.47
2024-02-18T14:49:04.198Z,101975.16
2024-02-18T14:51:31.026Z,101971.41
2024-02-18T14:53:57.964Z,101975.53
2024-02-18T14:56:24.772Z,101988.53
2024-02-18T14:58:51.561Z,101992.56
2024-02-18T15:01:20.351Z,101979.00
2024-02-18T15:03:47.403Z,101991.94
2024-02-18T15:06:14.205Z,101984.50
2024-02-18T15:08:41.787Z,101988.78
2024-02-18T15:11:08.296Z,101981.59
2024-02-18T15:13:34.934Z,101992.13
2024-02-18T15:16:01.504Z,101988.44
2024-02-18T15:18:28.122Z,101984.94
2024-02-18T15:20:54.715Z,101991.88
2024-02-18T15:23:21.489Z,101994.38
2024-02-18T15:25:52.609Z,101987.34
2024-02-18T15:28:19.744Z,102001.47
2024-02-18T15:30:46.840Z,102000.59
2024-02-18T15:33:13.551Z,102002.41
2024-02-18T15:35:41.545Z,102013.09
2024-02-18T15:38:08.444Z,102012.41
2024-02-18T15:40:35.148Z,102014.97
2024-02-18T15:43:01.866Z,102022.13
2024-02-18T15:45:28.477Z,102016.69
2024-02-18T15:47:55.763Z,102016.44
2024-02-18T15:50:22.650Z,102024.25
2024-02-18T15:52:49.144Z,102025.09
2024-02-18T15:55:15.873Z,102030.41
2024-02-18T15:57:42.531Z,102033.97
2024-02-18T16:00:09.818Z,102038.44
2024-02-18T16:02:36.278Z,102039.28
2024-02-18T16:05:03.126Z,102064.09
2024-02-18T16:07:30.795Z,102061.47
2024-02-18T16:09:57.974Z,102058.81
2024-02-18T16:12:24.585Z,102069.41
2024-02-18T16:14:51.092Z,102064.25
2024-02-18T16:17:18.004Z,102068.78
2024-02-18T16:19:44.779Z,102094.63
2024-02-18T16:22:12.817Z,102103.56
2024-02-18T16:24:40.493Z,102112.63
2024-02-18T16:27:07.302Z,102095.16
2024-02-18T16:29:33.916Z,102109.44
2024-02-18T16:32:01.148Z,102117.56
2024-02-18T16:34:29.441Z,102133.63
2024-02-18T16:36:56.156Z,102133.72
2024-02-18T16:39:22.834Z,102138.38
2024-02-18T16:41:49.437Z,102153.50
2024-02-18T16:44:16.046Z,102146.72
2024-02-18T16:46:42.675Z,102159.19
2024-02-18T16:49:10.034Z,102162.84
2024-02-18T16:51:45.007Z,102146.25
2024-02-18T16:54:12.107Z,102155.34
2024-02-18T16:56:38.639Z,102155.59
2024-02-18T16:59:05.185Z,102164.69
2024-02-18T17:01:32.243Z,102164.97
2024-02-18T17:04:02.497Z,102172.22
2024-02-18T17:06:30.775Z,102184.75
2024-02-18T17:08:57.604Z,102187.53
2024-02-18T17:11:24.269Z,102187.69
2024-02-18T17:13:51.029Z,102201.22
2024-02-18T17:16:17.755Z,102207.44
2024-02-18T17:18:44.621Z,102200.56
2024-02-18T17:21:11.487Z,102210.38
2024-02-18T17:23:40.023Z,102210.47
2024-02-18T17:26:06.624Z,102229.13
2024-02-18T17:28:33.142Z,102215.94
2024-02-18T17:30:59.898Z,102223.13
2024-02-18T17:33:28.578Z,102226.75
2024-02-18T17:35:55.260Z,102233.06
2024-02-18T17:38:21.782Z,102244.59
2024-02-18T17:40:48.312Z,102257.09
2024-02-18T17:43:15.096Z,102258.91
2024-02-18T17:45:42.388Z,102273.97
2024-02-18T17:48:09.606Z,102284.63
2024-02-18T17:50:38.631Z,102280.31
2024-02-18T17:53:07.375Z,102283.88
2024-02-18T17:55:34.150Z,102284.03
2024-02-18T17:58:00.983Z,102299.03
2024-02-18T18:00:30.470Z,102287.59
2024-02-18T18:02:57.937Z,102293.72
2024-02-18T18:05:24.537Z,102302.63
2024-02-18T18:07:55.676Z,102308.75
2024-02-18T18:10:23.532Z,102303.47
2024-02-18T18:12:53.647Z,102306.06
2024-02-18T18:15:23.004Z,102313.06
2024-02-18T18:17:50.022Z,102330.63
2024-02-18T18:20:17.029Z,102334.97
2024-02-18T18:22:46.362Z,102342.00
2024-02-18T18:25:13.941Z,102330.47
2024-02-18T18:27:41.398Z,102348.91
2024-02-18T18:30:08.795Z,102354.91
2024-02-18T18:32:35.749Z,102357.50
2024-02-18T18:35:03.104Z,102361.00
2024-02-18T18:37:29.804Z,102360.94
2024-02-18T18:39:56.425Z,102375.94
2024-02-18T18:42:23.416Z,102377.63
2024-02-18T18:44:50.356Z,102375.94
2024-02-18T18:47:18.802Z,102392.72
2024-02-18T18:49:52.719Z,102384.84
2024-02-18T18:52:19.641Z,102393.72
2024-02-18T18:54:46.377Z,102392.00
2024-02-18T18:57:15.327Z,102393.78
2024-02-18T18:59:42.017Z,102391.13
2024-02-18T19:02:08.750Z,102387.75
2024-02-18T19:04:35.427Z,102394.84
2024-02-18T19:07:02.339Z,102398.41
2024-02-18T19:09:33.628Z,102407.31
2024-02-18T19:12:01.072Z,102409.16
2024-02-18T19:14:28.036Z,102405.66
2024-02-18T19:16:54.578Z,102416.38
2024-02-18T19:19:21.580Z,102418.25
2024-02-18T19:21:48.394Z,102418.25
2024-02-18T19:24:15.020Z,102420.88
2024-02-18T19:26:43.838Z,102425.31
2024-02-18T19:29:11.106Z,102433.31
2024-02-18T19:31:38.131Z,102431.66
2024-02-18T19:34:08.052Z,102440.53
2024-02-18T19:36:39.234Z,102451.09
2024-02-18T19:39:05.918Z,102456.44
2024-02-18T19:41:40.093Z,102446.81
2024-02-18T19:44:06.805Z,102451.25
2024-02-18T19:46:49.441Z,102460.09
2024-02-18T19:49:19.249Z,102460.16
2024-02-18T19:51:47.127Z,102467.19
2024-02-18T19:54:15.045Z,102464.53
2024-02-18T19:56:42.556Z,102461.09
2024-02-18T19:59:09.919Z,102463.72
2024-02-18T20:04:03.627Z,102460.22
2024-02-18T20:06:30.444Z,102475.22
2024-02-18T20:08:57.032Z,102459.34
2024-02-18T20:11:25.875Z,102459.34
2024-02-18T20:13:54.100Z,102450.56
2024-02-18T20:16:20.754Z,102461.19
2024-02-18T20:18:47.504Z,102457.75
2024-02-18T20:21:15.023Z,102468.34
2024-02-18T20:23:42.263Z,102473.63
2024-02-18T20:26:18.004Z,102468.41
2024-02-18T20:28:44.987Z,102488.69
2024-02-18T20:31:22.048Z,102491.34
2024-02-18T20:33:49.589Z,102494.00
2024-02-18T20:36:18.228Z,102503.81
2024-02-18T20:38:45.724Z,102507.38
2024-02-18T20:41:13.060Z,102506.50
2024-02-18T20:43:39.611Z,102503.91
2024-02-18T20:46:06.648Z,102511.81
2024-02-18T20:48:33.337Z,102514.50
2024-02-18T20:51:00.682Z,102537.47
2024-02-18T20:53:27.214Z,102527.72
2024-02-18T20:55:53.766Z,102537.41
2024-02-18T20:58:22.957Z,102546.25
2024-02-18T21:00:50.114Z,102549.69
2024-02-18T21:03:20.516Z,102558.56
2024-02-18T21:05:47.645Z,102558.50
2024-02-18T21:08:14.740Z,102556.72
2024-02-18T21:10:41.467Z,102562.03
2024-02-18T21:13:11.754Z,102574.31
2024-02-18T21:15:38.702Z,102567.25
2024-02-18T21:18:07.274Z,102560.16
2024-02-18T21:20:33.858Z,102580.41
2024-02-18T21:23:02.084Z,102593.66
2024-02-18T21:25:29.555Z,102594.50
2024-02-18T21:27:56.661Z,102592.72
2024-02-18T21:30:26.761Z,102602.41
2024-02-18T21:32:58.214Z,102604.09
2024-02-18T21:35:24.936Z,102611.16
2024-02-18T21:37:51.766Z,102611.19
2024-02-18T21:40:19.261Z,102621.72
2024-02-18T21:42:45.882Z,102626.16
2024-02-18T21:45:12.523Z,102637.59
2024-02-18T21:47:39.231Z,102631.47
2024-02-18T21:50:06.145Z,102640.25
2024-02-18T21:52:32.839Z,102644.69
2024-02-18T21:54:59.534Z,102645.56
2024-02-18T21:57:26.146Z,102651.75
2024-02-18T21:59:52.698Z,102655.31
2024-02-18T22:02:19.341Z,102660.63
2024-02-18T22:04:46.031Z,102663.31
2024-02-18T22:07:17.567Z,102675.69
2024-02-18T22:09:46.050Z,102669.53
2024-02-18T22:12:13.341Z,102668.66
2024-02-18T22:14:39.967Z,102672.25
2024-02-18T22:17:07.516Z,102678.50
2024-02-18T22:19:34.847Z,102697.91
2024-02-18T22:22:02.146Z,102697.03
2024-02-18T22:24:29.935Z,102705.88
2024-02-18T22:26:56.486Z,102698.03
2024-02-18T22:29:23.137Z,102711.25
2024-02-18T22:31:49.698Z,102711.28
2024-02-18T22:34:19.589Z,102720.22
2024-02-18T22:36:46.449Z,102721.97
2024-02-18T22:39:13.544Z,102725.50
2024-02-18T22:41:42.749Z,102737.84
2024-02-18T22:44:09.283Z,102741.44
2024-02-18T22:46:35.833Z,102744.97
2024-02-18T22:49:02.976Z,102748.56
2024-02-18T22:51:29.711Z,102755.63
2024-02-18T22:53:56.379Z,102758.28
2024-02-18T22:56:22.868Z,102766.28
2024-02-18T22:58:50.364Z,102763.66
2024-02-18T23:01:17.060Z,102763.66
2024-02-18T23:03:43.798Z,102782.22
2024-02-18T23:06:10.467Z,102784.88
2024-02-18T23:08:40.701Z,102790.25
2024-02-18T23:11:09.037Z,102787.63
2024-02-18T23:13:35.942Z,102785.84
2024-02-18T23:16:02.837Z,102797.38
2024-02-18T23:18:29.599Z,102790.34
2024-02-18T23:20:56.218Z,102795.63
2024-02-18T23:23:22.861Z,102802.75
2024-02-18T23:25:49.440Z,102808.03
2024-02-18T23:28:16.160Z,102802.75
2024-02-18T23:30:42.846Z,102808.09
2024-02-18T23:33:09.476Z,102809.00
2024-02-18T23:35:36.077Z,102809.06
2024-02-18T23:38:05.289Z,102818.72
2024-02-18T23:40:33.128Z,102817.00
2024-02-18T23:42:59.955Z,102820.56
2024-02-18T23:45:26.533Z,102820.56
2024-02-18T23:47:53.273Z,102832.84
2024-02-18T23:50:19.922Z,102832.97
2024-02-18T23:52:46.460Z,102834.66
2024-02-18T23:55:13.345Z,102833.84
2024-02-18T23:57:40.158Z,102841.72
